createdAt,value
2023-04-29T00:01:05.330Z,96440.97
2023-04-29T00:03:35.312Z,96447.06
2023-04-29T00:06:02.786Z,96438.16
2023-04-29T00:08:29.531Z,96443.00
2023-04-29T00:10:56.189Z,96442.53
2023-04-29T00:13:22.832Z,96435.69
2023-04-29T00:15:49.450Z,96438.16
2023-04-29T00:18:16.122Z,96443.88
2023-04-29T00:20:43.506Z,96440.81
2023-04-29T00:23:10.267Z,96445.47
2023-04-29T00:25:38.442Z,96444.25
2023-04-29T00:28:06.188Z,96434.25
2023-04-29T00:30:34.654Z,96431.38
2023-04-29T00:33:01.878Z,96430.38
2023-04-29T00:35:28.860Z,96419.59
2023-04-29T00:37:55.397Z,96420.47
2023-04-29T00:40:22.079Z,96430.38
2023-04-29T00:42:48.630Z,96427.13
2023-04-29T00:45:15.161Z,96435.84
2023-04-29T00:47:42.215Z,96422.91
2023-04-29T00:50:10.252Z,96433.28
2023-04-29T00:52:38.227Z,96431.06
2023-04-29T00:55:09.321Z,96423.97
2023-04-29T00:57:35.960Z,96435.75
2023-04-29T01:00:03.348Z,96428.88
2023-04-29T01:02:30.196Z,96438.19
2023-04-29T01:04:57.186Z,96434.47
2023-04-29T01:07:42.602Z,96428.44
2023-04-29T01:10:22.697Z,96415.41
2023-04-29T01:13:09.671Z,96411.97
2023-04-29T01:16:01.709Z,96423.38
2023-04-29T01:18:41.436Z,96418.91
2023-04-29T01:21:08.115Z,96414.47
2023-04-29T01:23:34.629Z,96412.63
2023-04-29T01:26:01.203Z,96418.34
2023-04-29T01:28:43.423Z,96423.41
2023-04-29T01:31:19.560Z,96420.34
2023-04-29T01:34:14.332Z,96427.44
2023-04-29T01:37:00.862Z,96419.47
2023-04-29T01:39:37.340Z,96410.66
2023-04-29T01:42:28.898Z,96416.81
2023-04-29T01:44:57.168Z,96416.22
2023-04-29T01:47:24.786Z,96413.78
2023-04-29T01:49:51.956Z,96413.00
2023-04-29T01:52:18.705Z,96416.66
2023-04-29T01:54:46.152Z,96419.91
2023-04-29T01:57:13.014Z,96421.84
2023-04-29T01:59:39.768Z,96411.53
2023-04-29T02:02:06.231Z,96419.47
2023-04-29T02:04:34.569Z,96418.63
2023-04-29T02:07:01.665Z,96420.63
2023-04-29T02:09:28.158Z,96427.91
2023-04-29T02:11:55.062Z,96417.56
2023-04-29T02:14:21.830Z,96420.00
2023-04-29T02:16:48.407Z,96423.31
2023-04-29T02:19:15.054Z,96416.03
2023-04-29T02:21:41.643Z,96426.38
2023-04-29T02:24:08.172Z,96430.06
2023-04-29T02:26:35.588Z,96439.97
2023-04-29T02:29:02.636Z,96437.50
2023-04-29T02:31:29.311Z,96437.28
2023-04-29T02:33:56.161Z,96438.50
2023-04-29T02:36:22.636Z,96433.78
2023-04-29T02:38:50.828Z,96443.91
2023-04-29T02:41:21.520Z,96437.88
2023-04-29T02:43:49.147Z,96439.88
2023-04-29T02:46:16.806Z,96434.00
2023-04-29T02:48:43.377Z,96436.69
2023-04-29T02:51:09.942Z,96436.47
2023-04-29T02:53:36.777Z,96432.44
2023-04-29T02:56:03.450Z,96449.63
2023-04-29T02:58:29.931Z,96439.75
2023-04-29T03:00:56.650Z,96439.72
2023-04-29T03:03:23.767Z,96429.38
2023-04-29T03:05:50.766Z,96425.97
2023-04-29T03:08:17.295Z,96435.88
2023-04-29T03:10:43.830Z,96427.56
2023-04-29T03:13:10.362Z,96425.09
2023-04-29T03:15:37.101Z,96422.88
2023-04-29T03:18:04.973Z,96415.13
2023-04-29T03:20:32.732Z,96428.69
2023-04-29T03:23:00.970Z,96427.00
2023-04-29T03:25:28.283Z,96427.34
2023-04-29T03:27:54.785Z,96424.69
2023-04-29T03:30:21.393Z,96424.94
2023-04-29T03:32:47.910Z,96429.53
2023-04-29T03:35:15.956Z,96429.31
2023-04-29T03:37:44.563Z,96422.44
2023-04-29T03:40:12.073Z,96428.88
2023-04-29T03:42:38.605Z,96422.72
2023-04-29T03:45:06.148Z,96431.00
2023-04-29T03:47:32.686Z,96429.38
2023-04-29T03:49:59.198Z,96419.78
2023-04-29T03:52:27.275Z,96422.25
2023-04-29T03:54:53.843Z,96420.56
2023-04-29T03:57:20.764Z,96422.44
2023-04-29T03:59:50.519Z,96425.19
2023-04-29T04:02:17.720Z,96424.72
2023-04-29T04:04:44.560Z,96440.25
2023-04-29T04:07:11.750Z,96433.47
2023-04-29T04:09:38.600Z,96439.75
2023-04-29T04:12:06.332Z,96433.41
2023-04-29T04:14:32.891Z,96436.16
2023-04-29T04:16:59.486Z,96441.84
2023-04-29T04:19:27.157Z,96441.59
2023-04-29T04:21:53.796Z,96450.69
2023-04-29T04:24:20.415Z,96446.78
2023-04-29T04:26:47.008Z,96457.31
2023-04-29T04:29:13.431Z,96455.31
2023-04-29T04:31:40.533Z,96467.47
2023-04-29T04:34:07.073Z,96462.22
2023-04-29T04:36:33.659Z,96465.09
2023-04-29T04:39:00.274Z,96459.56
2023-04-29T04:41:26.803Z,96460.94
2023-04-29T04:43:53.342Z,96472.63
2023-04-29T04:46:20.142Z,96462.16
2023-04-29T04:48:46.667Z,96473.13
2023-04-29T04:51:14.166Z,96477.81
2023-04-29T04:53:41.274Z,96474.63
2023-04-29T04:56:08.490Z,96472.97
2023-04-29T04:58:35.192Z,96466.34
2023-04-29T05:01:01.898Z,96474.66
2023-04-29T05:03:28.930Z,96466.22
2023-04-29T05:06:00.322Z,96480.19
2023-04-29T05:08:28.895Z,96471.19
2023-04-29T05:10:58.497Z,96483.97
2023-04-29T05:13:28.116Z,96486.34
2023-04-29T05:15:54.722Z,96483.22
2023-04-29T05:18:21.212Z,96480.56
2023-04-29T05:20:47.707Z,96484.72
2023-04-29T05:23:15.019Z,96481.25
2023-04-29T05:25:41.541Z,96479.31
2023-04-29T05:28:07.999Z,96473.91
2023-04-29T05:30:35.732Z,96474.84
2023-04-29T05:33:02.310Z,96486.50
2023-04-29T05:35:28.907Z,96487.53
2023-04-29T05:37:55.594Z,96490.56
2023-04-29T05:40:23.438Z,96489.25
2023-04-29T05:42:50.160Z,96481.31
2023-04-29T05:45:16.756Z,96493.00
2023-04-29T05:47:43.315Z,96501.84
2023-04-29T05:50:11.593Z,96500.06
2023-04-29T05:52:38.705Z,96510.06
2023-04-29T05:55:05.726Z,96509.31
2023-04-29T05:57:32.415Z,96501.28
2023-04-29T06:00:00.104Z,96513.56
2023-04-29T06:02:27.514Z,96513.59
2023-04-29T06:04:54.244Z,96511.38
2023-04-29T06:07:21.314Z,96518.09
2023-04-29T06:09:47.822Z,96515.25
2023-04-29T06:12:14.325Z,96523.38
2023-04-29T06:14:40.858Z,96513.78
2023-04-29T06:17:07.391Z,96509.81
2023-04-29T06:19:34.138Z,96510.28
2023-04-29T06:22:00.908Z,96520.56
2023-04-29T06:24:27.365Z,96532.13
2023-04-29T06:26:53.927Z,96526.94
2023-04-29T06:29:20.461Z,96523.94
2023-04-29T06:31:47.022Z,96537.56
2023-04-29T06:34:14.620Z,96529.44
2023-04-29T06:36:41.638Z,96538.59
2023-04-29T06:39:08.149Z,96551.81
2023-04-29T06:41:34.951Z,96545.31
2023-04-29T06:44:01.469Z,96543.28
2023-04-29T06:46:29.288Z,96544.91
2023-04-29T06:48:55.911Z,96545.31
2023-04-29T06:51:22.412Z,96541.25
2023-04-29T06:53:49.010Z,96547.34
2023-04-29T06:56:16.970Z,96540.63
2023-04-29T06:58:44.528Z,96537.75
2023-04-29T07:01:11.104Z,96542.34
2023-04-29T07:03:38.090Z,96538.44
2023-04-29T07:06:05.205Z,96542.19
2023-04-29T07:08:32.265Z,96539.06
2023-04-29T07:10:59.732Z,96538.84
2023-04-29T07:13:26.330Z,96551.31
2023-04-29T07:15:53.035Z,96557.44
2023-04-29T07:18:20.352Z,96551.03
2023-04-29T07:20:48.043Z,96543.94
2023-04-29T07:23:15.245Z,96556.47
2023-04-29T07:25:41.808Z,96564.72
2023-04-29T07:28:11.104Z,96546.22
2023-04-29T07:30:37.652Z,96560.03
2023-04-29T07:33:04.631Z,96562.97
2023-04-29T07:35:31.772Z,96565.38
2023-04-29T07:37:58.397Z,96565.31
2023-04-29T07:40:24.945Z,96567.13
2023-04-29T07:42:51.608Z,96569.03
2023-04-29T07:45:18.275Z,96571.34
2023-04-29T07:47:45.709Z,96574.28
2023-04-29T07:50:12.554Z,96580.56
2023-04-29T07:52:38.998Z,96576.59
2023-04-29T07:55:05.959Z,96577.91
2023-04-29T07:57:32.465Z,96578.72
2023-04-29T07:59:59.002Z,96578.47
2023-04-29T08:02:25.674Z,96576.06
2023-04-29T08:04:54.655Z,96584.69
2023-04-29T08:07:21.586Z,96593.16
2023-04-29T08:09:48.135Z,96575.03
2023-04-29T08:12:14.568Z,96586.38
2023-04-29T08:14:41.303Z,96588.34
2023-04-29T08:17:08.667Z,96588.81
2023-04-29T08:19:35.222Z,96588.13
2023-04-29T08:22:02.087Z,96593.56
2023-04-29T08:24:29.725Z,96588.75
2023-04-29T08:26:56.178Z,96594.72
2023-04-29T08:29:23.156Z,96590.19
2023-04-29T08:31:50.318Z,96603.09
2023-04-29T08:34:16.838Z,96600.56
2023-04-29T08:36:43.341Z,96604.25
2023-04-29T08:39:09.914Z,96608.28
2023-04-29T08:41:37.059Z,96607.97
2023-04-29T08:44:03.551Z,96607.56
2023-04-29T08:46:32.667Z,96610.38
2023-04-29T08:49:02.927Z,96614.94
2023-04-29T08:51:30.216Z,96609.06
2023-04-29T08:53:57.199Z,96617.19
2023-04-29T08:56:25.677Z,96616.25
2023-04-29T08:58:58.894Z,96616.34
2023-04-29T09:01:28.829Z,96611.88
2023-04-29T09:04:26.879Z,96612.44
2023-04-29T09:06:56.938Z,96613.78
2023-04-29T09:09:25.074Z,96621.50
2023-04-29T09:11:51.666Z,96614.44
2023-04-29T09:14:19.375Z,96617.75
2023-04-29T09:16:49.052Z,96617.84
2023-04-29T09:19:33.494Z,96628.22
2023-04-29T09:22:01.887Z,96616.88
2023-04-29T09:24:29.725Z,96625.50
2023-04-29T09:26:56.754Z,96620.22
2023-04-29T09:29:24.091Z,96618.56
2023-04-29T09:31:53.538Z,96623.13
2023-04-29T09:34:39.592Z,96621.59
2023-04-29T09:37:24.341Z,96626.84
2023-04-29T09:39:51.016Z,96631.50
2023-04-29T09:42:17.693Z,96632.44
2023-04-29T09:44:45.277Z,96638.06
2023-04-29T09:47:13.258Z,96643.41
2023-04-29T09:49:45.455Z,96644.13
2023-04-29T09:52:14.333Z,96637.81
2023-04-29T09:54:43.185Z,96645.63
2023-04-29T09:57:11.578Z,96634.56
2023-04-29T09:59:41.037Z,96648.88
2023-04-29T10:02:18.841Z,96640.19
2023-04-29T10:04:47.628Z,96646.81
2023-04-29T10:07:16.801Z,96654.50
2023-04-29T10:09:46.198Z,96644.38
2023-04-29T10:12:18.965Z,96642.97
2023-04-29T10:15:06.913Z,96651.41
2023-04-29T10:17:47.749Z,96658.31
2023-04-29T10:20:16.476Z,96654.84
2023-04-29T10:22:47.928Z,96652.75
2023-04-29T10:25:20.609Z,96658.59
2023-04-29T10:27:48.936Z,96653.56
2023-04-29T10:30:18.345Z,96653.22
2023-04-29T10:35:19.147Z,96657.81
2023-04-29T10:37:47.751Z,96659.78
2023-04-29T10:40:16.726Z,96638.91
2023-04-29T10:42:47.362Z,96654.69
2023-04-29T10:45:20.460Z,96645.31
2023-04-29T10:48:02.761Z,96655.91
2023-04-29T10:50:30.414Z,96657.09
2023-04-29T10:52:57.993Z,96661.19
2023-04-29T10:55:24.929Z,96650.50
2023-04-29T10:57:57.031Z,96652.88
2023-04-29T11:00:28.166Z,96653.88
2023-04-29T11:02:59.645Z,96649.41
2023-04-29T11:05:33.484Z,96651.31
2023-04-29T11:08:24.484Z,96655.44
2023-04-29T11:10:54.429Z,96649.03
2023-04-29T11:13:37.836Z,96644.16
2023-04-29T11:16:09.295Z,96644.75
2023-04-29T11:18:36.556Z,96650.44
2023-04-29T11:21:06.212Z,96654.31
2023-04-29T11:23:36.934Z,96645.50
2023-04-29T11:26:04.111Z,96645.06
2023-04-29T11:28:32.568Z,96650.78
2023-04-29T11:31:00.006Z,96648.94
2023-04-29T11:33:28.007Z,96635.88
2023-04-29T11:35:55.301Z,96655.41
2023-04-29T11:38:26.347Z,96640.06
2023-04-29T11:40:52.844Z,96655.72
2023-04-29T11:43:20.310Z,96658.97
2023-04-29T11:45:47.837Z,96657.47
2023-04-29T11:48:21.925Z,96649.94
2023-04-29T11:50:59.525Z,96669.09
2023-04-29T11:53:28.066Z,96665.06
2023-04-29T11:55:55.820Z,96655.28
2023-04-29T11:58:23.457Z,96657.72
2023-04-29T12:00:51.029Z,96667.31
2023-04-29T12:03:21.879Z,96674.44
2023-04-29T12:05:56.303Z,96670.59
2023-04-29T12:08:27.435Z,96660.06
2023-04-29T12:10:58.888Z,96677.16
2023-04-29T12:13:26.908Z,96676.09
2023-04-29T12:15:53.956Z,96671.28
2023-04-29T12:18:23.450Z,96678.44
2023-04-29T12:20:51.585Z,96685.03
2023-04-29T12:23:20.083Z,96693.19
2023-04-29T12:25:50.693Z,96681.34
2023-04-29T12:28:17.920Z,96697.28
2023-04-29T12:30:46.006Z,96698.88
2023-04-29T12:33:19.810Z,96685.47
2023-04-29T12:35:46.353Z,96687.00
2023-04-29T12:38:16.699Z,96677.13
2023-04-29T12:40:44.749Z,96687.03
2023-04-29T12:43:11.973Z,96697.00
2023-04-29T12:45:39.215Z,96696.22
2023-04-29T12:48:10.050Z,96701.41
2023-04-29T12:50:49.594Z,96705.09
2023-04-29T12:53:16.365Z,96712.78
2023-04-29T12:55:42.882Z,96713.00
2023-04-29T12:58:09.757Z,96707.09
2023-04-29T13:00:38.004Z,96714.88
2023-04-29T13:03:05.029Z,96712.41
2023-04-29T13:05:31.716Z,96710.47
2023-04-29T13:07:58.469Z,96702.09
2023-04-29T13:10:25.190Z,96716.09
2023-04-29T13:12:52.139Z,96716.97
2023-04-29T13:15:18.734Z,96710.34
2023-04-29T13:17:45.976Z,96713.13
2023-04-29T13:20:13.198Z,96697.03
2023-04-29T13:22:39.659Z,96714.16
2023-04-29T13:25:06.434Z,96706.19
2023-04-29T13:27:32.954Z,96702.34
2023-04-29T13:29:59.521Z,96694.75
2023-04-29T13:32:26.134Z,96702.00
2023-04-29T13:34:53.335Z,96701.44
2023-04-29T13:37:20.391Z,96707.75
2023-04-29T13:39:48.082Z,96713.50
2023-04-29T13:42:15.764Z,96710.47
2023-04-29T13:44:51.746Z,96720.28
2023-04-29T13:47:25.068Z,96725.56
2023-04-29T13:59:55.096Z,96719.97
2023-04-29T14:02:25.595Z,96718.78
2023-04-29T14:04:53.443Z,96720.84
2023-04-29T14:07:21.211Z,96712.94
2023-04-29T14:09:49.412Z,96709.63
2023-04-29T14:12:15.955Z,96711.53
2023-04-29T14:14:42.481Z,96713.53
2023-04-29T14:17:10.319Z,96722.41
2023-04-29T14:19:36.791Z,96719.00
2023-04-29T14:22:03.420Z,96724.47
2023-04-29T14:24:29.935Z,96720.41
2023-04-29T14:26:57.977Z,96723.38
2023-04-29T14:29:24.685Z,96721.81
2023-04-29T14:31:51.279Z,96721.41
2023-04-29T14:34:19.471Z,96727.13
2023-04-29T14:36:48.866Z,96725.31
2023-04-29T14:39:15.423Z,96730.97
2023-04-29T14:41:41.858Z,96734.66
2023-04-29T14:44:08.363Z,96729.66
2023-04-29T14:46:34.892Z,96726.63
2023-04-29T14:49:01.917Z,96743.19
2023-04-29T14:51:28.555Z,96742.69
2023-04-29T14:53:55.041Z,96742.25
2023-04-29T14:56:21.989Z,96747.81
2023-04-29T14:58:48.583Z,96751.34
2023-04-29T15:01:15.121Z,96748.97
2023-04-29T15:03:44.076Z,96739.03
2023-04-29T15:06:11.552Z,96736.38
2023-04-29T15:08:38.585Z,96746.34
2023-04-29T15:11:05.515Z,96755.78
2023-04-29T15:13:32.293Z,96755.31
2023-04-29T15:15:59.105Z,96755.78
2023-04-29T15:18:26.465Z,96752.47
2023-04-29T15:20:53.849Z,96758.31
2023-04-29T15:23:20.491Z,96756.31
2023-04-29T15:25:47.160Z,96749.09
2023-04-29T15:28:13.685Z,96766.66
2023-04-29T15:30:40.538Z,96763.53
2023-04-29T15:33:07.136Z,96760.31
2023-04-29T15:35:34.832Z,96770.88
2023-04-29T15:38:01.422Z,96766.91
2023-04-29T15:40:29.532Z,96774.78
2023-04-29T15:42:56.064Z,96774.00
2023-04-29T15:45:22.529Z,96785.41
2023-04-29T15:47:49.109Z,96782.31
2023-04-29T15:50:15.683Z,96790.59
2023-04-29T15:52:42.239Z,96790.59
2023-04-29T15:55:08.892Z,96799.25
2023-04-29T15:57:41.279Z,96798.84
2023-04-29T16:00:09.004Z,96802.31
2023-04-29T16:02:35.873Z,96819.22
2023-04-29T16:05:03.088Z,96815.34
2023-04-29T16:07:29.666Z,96816.16
2023-04-29T16:09:56.258Z,96813.94
2023-04-29T16:12:23.865Z,96804.16
2023-04-29T16:14:50.334Z,96815.81
2023-04-29T16:17:16.807Z,96829.88
2023-04-29T16:19:43.301Z,96828.41
2023-04-29T16:22:09.766Z,96824.69
2023-04-29T16:24:36.294Z,96822.91
2023-04-29T16:27:02.904Z,96831.03
2023-04-29T16:29:29.416Z,96834.53
2023-04-29T16:31:55.849Z,96822.34
2023-04-29T16:34:22.373Z,96842.28
2023-04-29T16:36:48.807Z,96837.38
2023-04-29T16:39:15.451Z,96840.66
2023-04-29T16:41:41.932Z,96851.25
2023-04-29T16:44:09.065Z,96856.94
2023-04-29T16:46:36.020Z,96856.16
2023-04-29T16:49:03.025Z,96862.25
2023-04-29T16:51:29.688Z,96864.31
2023-04-29T16:53:56.235Z,96860.00
2023-04-29T16:56:23.191Z,96878.13
2023-04-29T16:58:50.199Z,96866.13
2023-04-29T17:01:19.648Z,96880.00
2023-04-29T17:03:47.711Z,96872.84
2023-04-29T17:06:15.794Z,96880.97
2023-04-29T17:08:43.115Z,96882.00
2023-04-29T17:11:10.483Z,96878.97
2023-04-29T17:13:37.112Z,96883.41
2023-04-29T17:16:03.951Z,96892.19
2023-04-29T17:18:32.527Z,96886.69
2023-04-29T17:20:59.648Z,96892.78
2023-04-29T17:23:26.189Z,96884.63
2023-04-29T17:25:55.465Z,96891.50
2023-04-29T17:28:22.318Z,96894.38
2023-04-29T17:30:49.741Z,96888.28
2023-04-29T17:33:17.685Z,96891.53
2023-04-29T17:35:46.318Z,96892.84
2023-04-29T17:38:13.276Z,96891.50
2023-04-29T17:40:39.946Z,96898.63
2023-04-29T17:43:06.499Z,96900.25
2023-04-29T17:45:33.022Z,96900.84
2023-04-29T17:47:59.856Z,96901.69
2023-04-29T17:50:26.452Z,96907.78
2023-04-29T17:52:53.902Z,96909.78
2023-04-29T17:55:20.691Z,96916.91
2023-04-29T17:57:47.196Z,96918.75
2023-04-29T18:00:14.209Z,96914.66
2023-04-29T18:02:41.301Z,96924.00
2023-04-29T18:05:08.045Z,96923.06
2023-04-29T18:07:34.720Z,96936.69
2023-04-29T18:10:01.220Z,96940.16
2023-04-29T18:12:28.082Z,96940.44
2023-04-29T18:14:54.648Z,96948.44
2023-04-29T18:17:21.345Z,96952.81
2023-04-29T18:19:49.555Z,96954.63
2023-04-29T18:22:16.678Z,96955.06
2023-04-29T18:24:43.689Z,96958.75
2023-04-29T18:27:10.613Z,96947.72
2023-04-29T18:29:37.215Z,96961.44
2023-04-29T18:32:05.699Z,96966.31
2023-04-29T18:34:36.043Z,96968.81
2023-04-29T18:37:02.655Z,96963.72
2023-04-29T18:39:30.197Z,96946.63
2023-04-29T18:41:58.115Z,96958.63
2023-04-29T18:44:26.248Z,96962.84
2023-04-29T18:46:54.040Z,96970.66
2023-04-29T18:49:20.704Z,96972.09
2023-04-29T18:51:47.604Z,96975.25
2023-04-29T18:54:16.497Z,96996.03
2023-04-29T18:56:46.569Z,96997.16
2023-04-29T18:59:15.893Z,96994.91
2023-04-29T19:01:43.368Z,96999.81
2023-04-29T19:04:10.393Z,96998.25
2023-04-29T19:06:37.122Z,97002.50
2023-04-29T19:09:04.022Z,97009.97
2023-04-29T19:11:30.574Z,97008.91
2023-04-29T19:13:57.651Z,97010.31
2023-04-29T19:16:25.115Z,97015.25
2023-04-29T19:18:52.660Z,97019.53
2023-04-29T19:21:20.179Z,97019.47
2023-04-29T19:23:46.840Z,97016.25
2023-04-29T19:26:13.416Z,97015.63
2023-04-29T19:28:39.950Z,97025.81
2023-04-29T19:31:06.471Z,97040.00
2023-04-29T19:33:33.045Z,97043.72
2023-04-29T19:35:59.513Z,97039.41
2023-04-29T19:38:26.086Z,97040.66
2023-04-29T19:40:56.614Z,97050.63
2023-04-29T19:43:23.313Z,97048.13
2023-04-29T19:45:49.922Z,97048.31
2023-04-29T19:48:17.578Z,97043.81
2023-04-29T19:50:44.134Z,97046.69
2023-04-29T19:53:11.513Z,97051.31
2023-04-29T19:55:39.881Z,97057.16
2023-04-29T19:58:06.895Z,97052.03
2023-04-29T20:00:34.020Z,97051.50
2023-04-29T20:03:00.625Z,97055.13
2023-04-29T20:05:28.375Z,97049.94
2023-04-29T20:07:55.519Z,97066.50
2023-04-29T20:10:22.175Z,97060.03
2023-04-29T20:12:48.632Z,97055.13
2023-04-29T20:15:15.155Z,97047.69
2023-04-29T20:17:41.722Z,97053.50
2023-04-29T20:20:09.152Z,97064.06
2023-04-29T20:22:35.825Z,97049.16
2023-04-29T20:25:03.020Z,97057.69
2023-04-29T20:27:29.575Z,97054.44
2023-04-29T20:29:57.117Z,97050.44
2023-04-29T20:32:24.022Z,97049.25
2023-04-29T20:34:50.765Z,97061.78
2023-04-29T20:37:17.555Z,97059.06
2023-04-29T20:39:44.039Z,97063.59
2023-04-29T20:42:10.566Z,97070.31
2023-04-29T20:44:38.143Z,97075.31
2023-04-29T20:47:05.514Z,97075.50
2023-04-29T20:49:32.250Z,97080.84
2023-04-29T20:51:59.622Z,97077.34
2023-04-29T20:54:26.173Z,97078.22
2023-04-29T20:56:52.667Z,97074.50
2023-04-29T20:59:19.104Z,97074.13
2023-04-29T21:01:46.407Z,97083.41
2023-04-29T21:04:12.940Z,97070.28
2023-04-29T21:06:40.280Z,97082.94
2023-04-29T21:09:06.959Z,97075.03
2023-04-29T21:11:33.457Z,97082.78
2023-04-29T21:13:59.931Z,97082.19
2023-04-29T21:16:26.600Z,97086.34
2023-04-29T21:18:53.130Z,97088.16
2023-04-29T21:21:19.655Z,97083.84
2023-04-29T21:23:46.191Z,97097.31
2023-04-29T21:26:14.967Z,97089.84
2023-04-29T21:28:41.793Z,97094.28
2023-04-29T21:31:15.260Z,97091.19
2023-04-29T21:33:43.487Z,97092.75
2023-04-29T21:36:10.138Z,97093.66
2023-04-29T21:38:36.757Z,97100.72
2023-04-29T21:41:05.755Z,97102.00
2023-04-29T21:43:33.353Z,97090.97
2023-04-29T21:46:00.516Z,97102.25
2023-04-29T21:48:27.516Z,97106.97
2023-04-29T21:50:54.047Z,97098.16
2023-04-29T21:53:20.870Z,97097.41
2023-04-29T21:55:47.929Z,97098.81
2023-04-29T21:58:16.071Z,97103.28
2023-04-29T22:00:51.222Z,97098.66
2023-04-29T22:03:18.022Z,97104.75
2023-04-29T22:05:44.630Z,97108.34
2023-04-29T22:08:11.423Z,97108.22
2023-04-29T22:10:40.138Z,97111.63
2023-04-29T22:13:07.049Z,97118.41
2023-04-29T22:15:33.859Z,97108.78
2023-04-29T22:18:00.565Z,97105.88
2023-04-29T22:20:27.729Z,97108.63
2023-04-29T22:22:54.562Z,97118.28
2023-04-29T22:25:21.879Z,97116.56
2023-04-29T22:27:49.158Z,97118.03
2023-04-29T22:30:17.643Z,97113.47
2023-04-29T22:32:44.489Z,97119.91
2023-04-29T22:35:11.299Z,97125.19
2023-04-29T22:37:38.143Z,97115.81
2023-04-29T22:40:05.213Z,97117.03
2023-04-29T22:42:31.926Z,97119.50
2023-04-29T22:44:59.436Z,97111.59
2023-04-29T22:47:26.383Z,97118.94
2023-04-29T22:49:53.045Z,97119.91
2023-04-29T22:52:19.663Z,97112.72
2023-04-29T22:54:46.238Z,97123.53
2023-04-29T22:57:12.734Z,97124.50
2023-04-29T22:59:39.213Z,97124.22
2023-04-29T23:02:05.879Z,97125.75
2023-04-29T23:04:33.384Z,97121.13
2023-04-29T23:07:00.006Z,97133.44
2023-04-29T23:09:26.714Z,97132.50
2023-04-29T23:11:53.326Z,97131.84
2023-04-29T23:14:22.730Z,97137.06
2023-04-29T23:16:49.395Z,97140.00
2023-04-29T23:19:16.354Z,97134.28
2023-04-29T23:21:43.402Z,97128.19
2023-04-29T23:24:09.856Z,97129.91
2023-04-29T23:26:36.373Z,97123.28
2023-04-29T23:29:02.856Z,97128.69
2023-04-29T23:31:29.350Z,97142.69
2023-04-29T23:33:55.975Z,97140.06
2023-04-29T23:36:22.501Z,97132.38
2023-04-29T23:38:49.008Z,97134.38
2023-04-29T23:41:15.763Z,97138.09
2023-04-29T23:43:42.351Z,97142.06
2023-04-29T23:46:09.058Z,97133.53
2023-04-29T23:48:36.183Z,97128.63
2023-04-29T23:51:02.727Z,97134.09
2023-04-29T23:53:29.300Z,97115.44
2023-04-29T23:55:55.851Z,97121.78
2023-04-29T23:58:28.466Z,97124.41
